Time;durP1;ratioP1;P1;durP2;ratioP2;P2;SDS_P1;SDS_P2;PMS_P1;PMS_P2;Temp;Humidity;BMP_temperature;BMP_pressure;BME280_temperature;BME280_humidity;BME280_pressure;Samples;Min_cycle;Max_cycle;Signal;HPM_P1;HPM_P2
2022/10/13 00:00:11;;;;;;;15.88;13.07;;;;;;;10.16;74.76;95672.38;5137309;27;20191;-70
2022/10/13 00:02:38;;;;;;;14.00;12.52;;;;;;;10.09;74.65;95672.09;5139044;27;20180;-71
2022/10/13 00:05:05;;;;;;;14.55;13.05;;;;;;;10.04;74.48;95678.63;5139057;27;20655;-71
2022/10/13 00:07:32;;;;;;;15.05;13.45;;;;;;;10.05;74.86;95674.72;5121177;27;20195;-71
2022/10/13 00:09:59;;;;;;;15.23;13.25;;;;;;;10.08;74.67;95670.50;5120913;27;20195;-71
2022/10/13 00:12:26;;;;;;;15.20;13.45;;;;;;;10.09;74.69;95674.88;5121029;27;20206;-71
2022/10/13 00:14:53;;;;;;;14.77;12.82;;;;;;;10.10;74.90;95666.28;5139207;27;20207;-70
2022/10/13 00:17:21;;;;;;;15.52;13.88;;;;;;;10.07;74.79;95666.13;5121308;27;20197;-70
2022/10/13 00:19:48;;;;;;;15.27;13.25;;;;;;;10.03;75.13;95665.19;5138874;27;20192;-70
2022/10/13 00:22:15;;;;;;;15.30;13.35;;;;;;;10.05;74.58;95666.47;5138733;27;20175;-71
2022/10/13 00:24:41;;;;;;;16.08;13.55;;;;;;;10.05;74.81;95660.94;5120751;27;20219;-71
2022/10/13 00:27:08;;;;;;;16.17;13.20;;;;;;;10.05;74.83;95651.88;5138680;27;20186;-70
2022/10/13 00:29:35;;;;;;;15.15;12.60;;;;;;;10.05;74.95;95649.13;5120765;27;20547;-70
2022/10/13 00:32:02;;;;;;;14.35;12.85;;;;;;;10.01;74.69;95653.69;5139052;27;20179;-70
2022/10/13 00:34:30;;;;;;;14.40;12.80;;;;;;;9.98;74.87;95649.66;5120692;27;20214;-70
2022/10/13 00:36:57;;;;;;;13.93;12.40;;;;;;;9.95;74.40;95652.25;5120525;27;20199;-71
2022/10/13 00:39:24;;;;;;;14.05;12.65;;;;;;;9.89;74.64;95649.72;5120665;27;20198;-70
2022/10/13 00:41:53;;;;;;;13.98;12.57;;;;;;;9.92;75.01;95644.69;5138714;27;20260;-70
2022/10/13 00:44:57;;;;;;;13.35;11.95;;;;;;;9.88;74.52;95650.88;5120165;27;20187;-70
2022/10/13 00:47:24;;;;;;;14.90;12.55;;;;;;;9.88;74.65;95639.03;5138444;27;20181;-70
2022/10/13 00:49:53;;;;;;;14.75;12.88;;;;;;;9.88;75.05;95639.84;5120360;27;20179;-70
2022/10/13 00:52:21;;;;;;;15.15;13.55;;;;;;;9.89;74.59;95641.44;5137939;27;20278;-70
2022/10/13 00:54:49;;;;;;;14.23;12.73;;;;;;;9.89;74.68;95635.13;5138464;27;20203;-70
2022/10/13 00:57:15;;;;;;;14.50;12.93;;;;;;;9.87;74.70;95637.41;5138309;27;20179;-70
2022/10/13 00:59:42;;;;;;;13.73;12.32;;;;;;;9.84;74.99;95635.31;5138176;27;20183;-70
2022/10/13 01:02:09;;;;;;;14.68;13.10;;;;;;;9.82;74.89;95632.91;5137932;27;20189;-70
2022/10/13 01:04:40;;;;;;;12.95;11.73;;;;;;;9.78;74.55;95640.22;5138387;27;20179;-70
2022/10/13 01:07:09;;;;;;;14.90;13.30;;;;;;;9.74;74.74;95638.47;5138305;27;20195;-70
2022/10/13 01:09:36;;;;;;;14.70;12.77;;;;;;;9.69;75.03;95631.19;5138060;27;20191;-70
2022/10/13 01:12:10;;;;;;;13.75;12.18;;;;;;;9.69;75.14;95633.16;5137599;27;20183;-71
2022/10/13 01:14:44;;;;;;;15.95;13.05;;;;;;;9.64;75.11;95634.97;5137714;27;20634;-71
2022/10/13 01:17:17;;;;;;;16.52;13.98;;;;;;;9.63;75.23;95632.56;5137909;27;20187;-71
2022/10/13 01:20:17;;;;;;;15.00;13.20;;;;;;;9.67;75.00;95639.00;5120010;27;20202;-71
2022/10/13 01:22:56;;;;;;;18.25;12.93;;;;;;;9.68;75.37;95634.31;5127368;27;20222;-71
2022/10/13 01:25:34;;;;;;;16.45;13.82;;;;;;;9.70;75.43;95643.06;5119790;27;20186;-70
2022/10/13 01:28:17;;;;;;;16.92;14.35;;;;;;;9.72;75.55;95640.75;5137693;27;20211;-70
2022/10/13 01:30:48;;;;;;;14.18;12.63;;;;;;;9.67;75.18;95644.50;5119500;27;20191;-70
2022/10/13 01:33:24;;;;;;;14.13;12.52;;;;;;;9.62;75.11;95640.00;5137653;27;20190;-70
2022/10/13 01:35:59;;;;;;;15.38;13.02;;;;;;;9.60;74.85;95635.97;5119126;27;20218;-70
2022/10/13 01:38:33;;;;;;;14.20;12.52;;;;;;;9.56;75.11;95641.34;5111090;27;20209;-70
2022/10/13 01:41:04;;;;;;;14.35;12.55;;;;;;;9.54;75.35;95643.59;5119670;27;20195;-70
2022/10/13 01:43:35;;;;;;;14.43;12.38;;;;;;;9.49;75.05;95643.81;5119345;27;20191;-70
2022/10/13 01:46:06;;;;;;;14.02;12.10;;;;;;;9.45;75.42;95640.09;5136898;27;20614;-70
2022/10/13 01:48:33;;;;;;;13.40;11.68;;;;;;;9.49;75.42;95645.75;5119241;27;20244;-70
2022/10/13 01:51:00;;;;;;;13.98;12.57;;;;;;;9.50;75.76;95639.91;5137193;27;20194;-70
2022/10/13 01:53:27;;;;;;;13.15;11.68;;;;;;;9.51;75.64;95637.94;5136791;27;20246;-71
2022/10/13 01:55:57;;;;;;;13.32;11.93;;;;;;;9.57;75.53;95636.63;5118637;27;20662;-70
2022/10/13 01:58:25;;;;;;;13.27;11.85;;;;;;;9.58;75.58;95633.53;5119095;27;20199;-70
2022/10/13 02:01:06;;;;;;;13.73;12.32;;;;;;;9.62;75.83;95636.44;5136761;27;20186;-71
2022/10/13 02:03:41;;;;;;;13.45;12.10;;;;;;;9.59;75.78;95626.09;5136965;27;20179;-71
2022/10/13 02:06:14;;;;;;;15.30;12.82;;;;;;;9.59;75.80;95626.09;5118510;27;20610;-70
2022/10/13 02:08:44;;;;;;;14.27;12.52;;;;;;;9.58;75.62;95624.47;5136808;27;20199;-70
2022/10/13 02:11:14;;;;;;;14.48;12.55;;;;;;;9.57;75.59;95623.66;5118736;27;20599;-71
2022/10/13 02:13:43;;;;;;;15.00;12.80;;;;;;;9.56;75.89;95627.56;5118914;27;20233;-70
2022/10/13 02:16:13;;;;;;;13.52;12.13;;;;;;;9.51;75.89;95619.47;5118581;27;20218;-71
2022/10/13 02:18:40;;;;;;;13.43;11.70;;;;;;;9.49;75.70;95627.28;5118964;27;20507;-70
2022/10/13 02:21:07;;;;;;;12.68;11.32;;;;;;;9.47;75.84;95626.78;5136785;27;20190;-71
2022/10/13 02:23:34;;;;;;;13.50;11.95;;;;;;;9.48;75.79;95622.13;5135657;27;20187;-71
2022/10/13 02:26:00;;;;;;;14.07;12.57;;;;;;;9.48;75.71;95611.91;5136540;27;20197;-71
2022/10/13 02:28:28;;;;;;;15.15;12.88;;;;;;;9.49;75.89;95615.47;5118554;27;20199;-70
2022/10/13 02:30:55;;;;;;;15.02;12.43;;;;;;;9.48;76.05;95611.91;5118679;27;20201;-70
2022/10/13 02:33:23;;;;;;;13.82;12.15;;;;;;;9.47;75.76;95617.72;5118500;27;20195;-70
2022/10/13 02:35:50;;;;;;;14.25;12.27;;;;;;;9.44;75.68;95610.97;5118305;27;20217;-70
2022/10/13 02:38:17;;;;;;;13.38;11.98;;;;;;;9.46;75.63;95605.09;5136363;27;20183;-70
2022/10/13 02:40:44;;;;;;;14.77;11.95;;;;;;;9.43;75.30;95611.28;5118517;27;20251;-70
2022/10/13 02:43:11;;;;;;;13.63;12.23;;;;;;;9.39;75.45;95598.16;5136410;27;20232;-70
2022/10/13 02:45:37;;;;;;;13.00;11.68;;;;;;;9.36;75.73;95601.59;5136423;27;20175;-70
2022/10/13 02:48:04;;;;;;;15.80;12.80;;;;;;;9.33;75.65;95602.28;5135938;27;20512;-70
2022/10/13 02:50:33;;;;;;;13.80;12.30;;;;;;;9.26;75.93;95601.16;5136278;27;20198;-71
2022/10/13 02:52:59;;;;;;;15.88;12.88;;;;;;;9.27;75.71;95594.53;5114831;28;20231;-71
2022/10/13 02:55:26;;;;;;;16.48;12.88;;;;;;;9.30;76.01;95602.13;5114917;28;20211;-71
2022/10/13 02:57:53;;;;;;;14.48;12.88;;;;;;;9.28;76.04;95593.38;5114929;28;20200;-71
2022/10/13 03:00:21;;;;;;;13.65;12.27;;;;;;;9.28;76.29;95594.19;5135392;28;20195;-71
2022/10/13 03:02:48;;;;;;;13.57;12.20;;;;;;;9.33;76.19;95595.94;5135807;28;20191;-71
2022/10/13 03:05:16;;;;;;;14.02;12.63;;;;;;;9.35;76.13;95596.41;5136222;28;20190;-71
2022/10/13 03:07:44;;;;;;;13.63;12.18;;;;;;;9.35;75.97;95599.16;5136119;28;20187;-71
2022/10/13 03:10:11;;;;;;;13.02;11.65;;;;;;;9.34;75.99;95598.38;5117993;28;20196;-71
2022/10/13 03:12:38;;;;;;;14.73;12.60;;;;;;;9.35;76.03;95593.66;5136067;28;20198;-71
2022/10/13 03:15:05;;;;;;;14.85;13.30;;;;;;;9.34;76.08;95600.31;5118114;28;20215;-71
2022/10/13 03:17:33;;;;;;;15.98;13.02;;;;;;;9.26;75.69;95596.47;5118335;28;20206;-71
2022/10/13 03:19:59;;;;;;;14.85;12.95;;;;;;;9.24;75.90;95604.25;5136044;28;20187;-71
2022/10/13 03:22:26;;;;;;;15.07;12.77;;;;;;;9.25;75.98;95607.81;5117860;28;20199;-71
2022/10/13 03:24:54;;;;;;;15.00;12.80;;;;;;;9.26;76.36;95607.50;5117625;28;20203;-71
2022/10/13 03:27:21;;;;;;;14.25;12.77;;;;;;;9.29;76.38;95606.81;5135571;28;20484;-70
2022/10/13 03:29:48;;;;;;;16.10;13.13;;;;;;;9.31;76.79;95617.50;5135732;28;20179;-70
2022/10/13 03:32:15;;;;;;;16.00;12.88;;;;;;;9.32;76.38;95608.09;5117664;28;20230;-70
2022/10/13 03:34:42;;;;;;;14.50;12.43;;;;;;;9.35;76.77;95616.50;5121087;27;20203;-70
2022/10/13 03:37:09;;;;;;;13.25;11.75;;;;;;;9.37;77.09;95605.97;5121767;27;20191;-71
2022/10/13 03:39:36;;;;;;;13.20;11.93;;;;;;;9.42;77.30;95613.22;5121778;27;20198;-70
2022/10/13 03:42:04;;;;;;;14.85;13.27;;;;;;;9.42;77.34;95609.66;5139322;27;20195;-70
2022/10/13 03:44:31;;;;;;;14.65;13.15;;;;;;;9.42;77.54;95615.19;5139421;27;20622;-70
2022/10/13 03:46:57;;;;;;;16.42;14.43;;;;;;;9.43;78.12;95606.56;5121562;27;20195;-70
2022/10/13 03:49:25;;;;;;;17.65;15.75;;;;;;;9.44;78.04;95610.97;5121160;27;20195;-70
2022/10/13 03:51:51;;;;;;;19.10;15.07;;;;;;;9.44;78.31;95608.22;5139157;27;20603;-70
2022/10/13 03:54:18;;;;;;;20.50;15.50;;;;;;;9.43;78.34;95603.81;5121166;27;20227;-70
2022/10/13 03:56:45;;;;;;;18.40;14.88;;;;;;;9.40;78.52;95599.81;5121841;27;20544;-71
2022/10/13 03:59:15;;;;;;;18.90;15.05;;;;;;;9.41;78.78;95606.13;5121232;27;20203;-71
2022/10/13 04:01:42;;;;;;;18.25;15.35;;;;;;;9.42;78.69;95606.91;5121827;27;20194;-70
2022/10/13 04:04:11;;;;;;;18.20;14.93;;;;;;;9.45;79.09;95595.25;5139267;27;20195;-69
2022/10/13 04:06:38;;;;;;;17.60;15.70;;;;;;;9.47;78.83;95598.44;5139396;27;20187;-69
2022/10/13 04:09:05;;;;;;;16.50;14.52;;;;;;;9.46;78.53;95602.34;5121593;27;20183;-69
2022/10/13 04:11:32;;;;;;;20.95;15.80;;;;;;;9.46;78.93;95610.63;5139125;27;20183;-69
2022/10/13 04:13:59;;;;;;;22.05;16.75;;;;;;;9.46;78.50;95597.66;5139250;27;20610;-70
2022/10/13 04:16:29;;;;;;;21.20;16.50;;;;;;;9.47;78.77;95595.69;5138867;27;20207;-70
2022/10/13 04:18:57;;;;;;;21.23;16.42;;;;;;;9.45;79.01;95595.25;5120901;27;20603;-70
2022/10/13 04:21:24;;;;;;;21.45;16.80;;;;;;;9.46;79.16;95596.84;5138968;27;20191;-69
2022/10/13 04:23:51;;;;;;;23.13;17.33;;;;;;;9.46;79.37;95589.38;5120810;27;20199;-68
2022/10/13 04:26:20;;;;;;;22.98;18.20;;;;;;;9.47;79.40;95590.19;5120484;27;20213;-68
2022/10/13 04:28:48;;;;;;;22.25;17.98;;;;;;;9.46;79.66;95588.59;5138948;27;20183;-69
2022/10/13 04:31:15;;;;;;;22.17;16.85;;;;;;;9.47;79.72;95584.69;5120351;27;20543;-69
2022/10/13 04:33:44;;;;;;;21.60;16.85;;;;;;;9.48;79.99;95589.88;5138584;27;20197;-70
2022/10/13 04:36:12;;;;;;;23.90;16.90;;;;;;;9.45;79.81;95586.97;5138460;27;20214;-70
2022/10/13 04:38:39;;;;;;;20.48;16.23;;;;;;;9.42;79.79;95593.16;5138624;27;20187;-69
2022/10/13 04:41:07;;;;;;;23.00;16.40;;;;;;;9.43;80.21;95587.31;5138916;27;20191;-69
2022/10/13 04:43:36;;;;;;;22.27;16.02;;;;;;;9.42;80.04;95591.19;5138596;27;20194;-69
2022/10/13 04:46:04;;;;;;;21.92;16.05;;;;;;;9.38;79.99;95590.25;5119955;27;20202;-68
2022/10/13 04:48:32;;;;;;;20.48;15.20;;;;;;;9.43;79.87;95592.00;5138501;27;20191;-70
2022/10/13 04:51:01;;;;;;;20.52;15.60;;;;;;;9.43;79.73;95592.81;5120044;27;20191;-69
2022/10/13 04:53:28;;;;;;;19.38;14.80;;;;;;;9.42;79.87;95593.16;5120092;27;20234;-70
2022/10/13 04:55:55;;;;;;;16.15;13.75;;;;;;;9.41;79.84;95603.34;5137924;27;20646;-70
2022/10/13 04:58:22;;;;;;;17.35;14.93;;;;;;;9.42;79.65;95601.41;5120145;27;20498;-69
2022/10/13 05:00:49;;;;;;;17.95;15.60;;;;;;;9.42;79.36;95599.47;5138285;27;20183;-69
2022/10/13 05:03:16;;;;;;;17.50;15.57;;;;;;;9.42;79.35;95602.22;5120259;27;20205;-69
2022/10/13 05:05:43;;;;;;;16.85;14.57;;;;;;;9.40;79.17;95596.22;5137806;27;20187;-69
2022/10/13 05:08:11;;;;;;;16.92;15.20;;;;;;;9.43;79.23;95605.78;5138067;27;20194;-69
2022/10/13 05:10:38;;;;;;;17.80;15.75;;;;;;;9.42;78.92;95606.91;5138117;27;20191;-70
2022/10/13 05:13:04;;;;;;;18.27;16.15;;;;;;;9.44;78.88;95612.88;5137980;27;20257;-70
2022/10/13 05:15:31;;;;;;;18.83;16.85;;;;;;;9.44;78.85;95607.38;5120000;27;20215;-73
2022/10/13 05:17:58;;;;;;;17.63;15.82;;;;;;;9.46;79.03;95616.13;5137978;27;20510;-73
2022/10/13 05:20:25;;;;;;;17.77;15.68;;;;;;;9.48;79.20;95614.66;5138163;27;20183;-72
2022/10/13 05:22:52;;;;;;;17.52;15.65;;;;;;;9.51;79.32;95618.66;5119822;27;20202;-72
2022/10/13 05:25:20;;;;;;;16.33;14.65;;;;;;;9.52;78.95;95623.06;5120075;27;20219;-72
2022/10/13 05:27:47;;;;;;;17.15;15.35;;;;;;;9.55;78.90;95627.88;5137778;27;20595;-72
2022/10/13 05:30:14;;;;;;;17.00;15.18;;;;;;;9.56;78.61;95624.00;5119577;27;20210;-72
2022/10/13 05:32:40;;;;;;;16.02;14.52;;;;;;;9.56;78.89;95622.06;5119883;27;20214;-73
2022/10/13 05:35:09;;;;;;;15.80;14.13;;;;;;;9.58;78.68;95628.03;5120098;27;20198;-73
2022/10/13 05:37:36;;;;;;;15.15;13.65;;;;;;;9.58;78.55;95638.22;5120203;27;20194;-73
2022/10/13 05:40:05;;;;;;;15.15;13.77;;;;;;;9.57;78.77;95633.88;5137568;27;20195;-73
2022/10/13 05:42:34;;;;;;;16.75;13.90;;;;;;;9.58;78.78;95647.28;5119620;27;20195;-72
2022/10/13 05:45:01;;;;;;;15.55;14.05;;;;;;;9.62;78.82;95644.69;5119422;27;20199;-73
2022/10/13 05:47:28;;;;;;;16.15;14.55;;;;;;;9.67;78.95;95654.72;5137622;27;20190;-74
2022/10/13 05:49:55;;;;;;;15.05;13.65;;;;;;;9.68;78.79;95659.91;5119305;27;20213;-72
2022/10/13 05:52:23;;;;;;;16.00;14.32;;;;;;;9.70;78.88;95646.59;5137268;27;20210;-71
2022/10/13 05:54:53;;;;;;;15.55;14.02;;;;;;;9.73;79.13;95650.63;5119407;27;20218;-70
2022/10/13 05:57:22;;;;;;;16.15;14.63;;;;;;;9.77;78.92;95662.63;5117990;27;20241;-69
2022/10/13 05:59:52;;;;;;;15.88;14.35;;;;;;;9.77;79.18;95666.19;5137008;27;20198;-71
2022/10/13 06:02:20;;;;;;;15.57;14.02;;;;;;;9.81;79.12;95664.38;5118768;27;20533;-70
2022/10/13 06:04:49;;;;;;;16.50;14.73;;;;;;;9.81;79.26;95656.09;5137452;27;20502;-70
2022/10/13 06:07:16;;;;;;;17.08;15.35;;;;;;;9.84;79.34;95655.44;5137322;27;20186;-70
2022/10/13 06:09:43;;;;;;;18.10;15.55;;;;;;;9.86;79.78;95655.88;5119229;27;20195;-71
2022/10/13 06:12:10;;;;;;;16.50;14.80;;;;;;;9.89;79.79;95652.47;5137177;27;20191;-71
2022/10/13 06:14:37;;;;;;;17.55;15.68;;;;;;;9.94;79.58;95651.47;5137263;27;20183;-72
2022/10/13 06:17:05;;;;;;;16.98;15.23;;;;;;;9.98;79.53;95662.63;5136912;27;20203;-71
2022/10/13 06:19:32;;;;;;;16.52;14.88;;;;;;;10.01;79.60;95659.19;5119074;27;20191;-72
2022/10/13 06:21:59;;;;;;;17.20;14.98;;;;;;;10.01;79.40;95657.25;5136651;27;20201;-72
2022/10/13 06:24:26;;;;;;;17.40;15.65;;;;;;;10.04;79.90;95653.81;5119064;28;20198;-72
2022/10/13 06:26:52;;;;;;;17.30;15.45;;;;;;;10.11;79.84;95656.84;5136890;27;20191;-72
2022/10/13 06:29:19;;;;;;;17.35;15.50;;;;;;;10.12;79.58;95663.97;5118952;27;20195;-71
2022/10/13 06:31:46;;;;;;;17.20;15.20;;;;;;;10.09;79.47;95659.16;5118518;27;20202;-71
2022/10/13 06:34:14;;;;;;;17.75;15.75;;;;;;;10.12;79.58;95655.69;5136326;27;20214;-71
2022/10/13 06:36:41;;;;;;;17.80;16.10;;;;;;;10.18;79.64;95650.00;5137367;27;20515;-71
2022/10/13 06:39:09;;;;;;;17.80;16.10;;;;;;;10.23;79.26;95649.78;5136833;27;20179;-72
2022/10/13 06:41:35;;;;;;;16.92;15.23;;;;;;;10.26;79.25;95646.41;5136638;27;20194;-71
2022/10/13 06:44:21;;;;;;;17.95;16.15;;;;;;;10.29;79.04;95648.50;5136628;27;20527;-71
2022/10/13 06:46:47;;;;;;;17.40;15.60;;;;;;;10.34;79.24;95651.03;5136425;27;20179;-71
2022/10/13 06:49:16;;;;;;;19.48;17.48;;;;;;;10.39;79.35;95641.78;5136609;27;20208;-71
2022/10/13 06:51:43;;;;;;;19.00;17.13;;;;;;;10.46;79.31;95642.84;5136389;27;20635;-72
2022/10/13 06:54:10;;;;;;;20.30;18.30;;;;;;;10.48;78.93;95645.25;5115803;28;20231;-71
2022/10/13 06:56:36;;;;;;;28.27;23.60;;;;;;;10.50;79.10;95645.72;5136467;28;20198;-72
2022/10/13 06:59:04;;;;;;;31.15;26.40;;;;;;;10.55;78.99;95645.50;5136208;28;20599;-72
2022/10/13 07:01:31;;;;;;;26.40;23.70;;;;;;;10.60;78.58;95645.28;5118206;28;20202;-73
2022/10/13 07:03:58;;;;;;;27.55;24.67;;;;;;;10.63;78.29;95641.84;5118683;28;20195;-71
2022/10/13 07:06:26;;;;;;;28.67;25.73;;;;;;;10.69;78.30;95639.69;5118251;28;20195;-70
2022/10/13 07:08:53;;;;;;;25.55;22.50;;;;;;;10.79;78.29;95644.78;5119744;27;20199;-71
2022/10/13 07:11:20;;;;;;;21.60;18.00;;;;;;;10.93;78.51;95645.28;5122857;27;20191;-71
2022/10/13 07:13:47;;;;;;;20.70;18.20;;;;;;;11.04;77.80;95634.63;5122712;27;20199;-72
2022/10/13 07:16:14;;;;;;;19.90;17.90;;;;;;;11.11;77.72;95634.88;5140429;27;20214;-71
2022/10/13 07:18:41;;;;;;;20.17;18.27;;;;;;;11.17;77.90;95639.00;5122852;27;20206;-72
2022/10/13 07:21:08;;;;;;;19.77;17.75;;;;;;;11.25;77.52;95640.84;5122838;27;20198;-72
2022/10/13 07:23:36;;;;;;;17.52;15.73;;;;;;;11.38;77.48;95646.41;5122584;27;20190;-71
2022/10/13 07:26:07;;;;;;;17.73;15.98;;;;;;;11.45;76.84;95641.91;5140624;27;20191;-72
2022/10/13 07:28:34;;;;;;;18.98;16.90;;;;;;;11.52;76.62;95652.41;5140573;27;20194;-71
2022/10/13 07:31:00;;;;;;;20.73;18.70;;;;;;;11.57;76.56;95643.88;5122855;27;20198;-73
2022/10/13 07:33:27;;;;;;;18.63;16.63;;;;;;;11.70;76.40;95641.94;5122443;27;20203;-71
2022/10/13 07:35:54;;;;;;;17.35;15.65;;;;;;;11.79;76.39;95639.84;5122354;27;20202;-72
2022/10/13 07:38:21;;;;;;;17.45;15.65;;;;;;;11.88;76.59;95640.56;5121962;27;20199;-71
2022/10/13 07:40:49;;;;;;;15.90;14.30;;;;;;;11.92;75.75;95646.19;5122687;27;20203;-72
2022/10/13 07:43:15;;;;;;;16.20;14.60;;;;;;;12.00;75.09;95639.72;5121810;27;20213;-72
2022/10/13 07:45:42;;;;;;;17.40;15.60;;;;;;;12.08;75.26;95646.28;5122257;27;20213;-71
2022/10/13 07:48:09;;;;;;;17.15;15.38;;;;;;;12.10;75.20;95632.94;5121535;27;20626;-72
2022/10/13 07:50:36;;;;;;;18.38;16.48;;;;;;;12.20;74.92;95638.78;5139844;27;20209;-73
2022/10/13 07:53:03;;;;;;;17.45;15.63;;;;;;;12.29;74.37;95635.84;5132091;27;20235;-72
2022/10/13 07:55:30;;;;;;;16.27;14.68;;;;;;;12.36;74.22;95641.59;5119443;28;20180;-72
2022/10/13 07:58:01;;;;;;;17.50;15.75;;;;;;;12.44;73.87;95632.34;5101238;28;20215;-72
2022/10/13 08:00:28;;;;;;;18.02;16.23;;;;;;;12.51;74.10;95623.47;5119401;28;20191;-72
2022/10/13 08:02:54;;;;;;;19.02;16.15;;;;;;;12.61;74.23;95633.22;5101844;28;20188;-72
2022/10/13 08:05:21;;;;;;;18.10;16.20;;;;;;;12.73;74.24;95633.16;5101386;28;20204;-72
2022/10/13 08:07:48;;;;;;;19.02;17.02;;;;;;;12.83;73.50;95623.56;5118913;28;20176;-72
2022/10/13 08:10:15;;;;;;;19.33;17.42;;;;;;;12.92;73.84;95632.47;5101010;28;20202;-72
2022/10/13 08:12:41;;;;;;;20.33;18.23;;;;;;;13.03;73.26;95628.03;5100451;28;20200;-68
2022/10/13 08:15:10;;;;;;;20.33;17.85;;;;;;;13.11;72.41;95623.50;5099905;28;20199;-69
2022/10/13 08:17:37;;;;;;;22.35;19.42;;;;;;;13.11;71.59;95632.63;5100785;28;20216;-71
2022/10/13 08:20:05;;;;;;;22.38;20.02;;;;;;;13.18;72.28;95618.97;5099687;28;20192;-70
2022/10/13 08:22:33;;;;;;;23.45;20.17;;;;;;;13.21;71.79;95621.00;5118789;28;20188;-71
2022/10/13 08:25:00;;;;;;;22.25;19.85;;;;;;;13.27;72.27;95618.00;5118925;28;20204;-72
2022/10/13 08:27:27;;;;;;;23.17;20.73;;;;;;;13.34;72.09;95618.19;5118711;28;20180;-72
2022/10/13 08:29:54;;;;;;;23.23;20.83;;;;;;;13.38;71.55;95616.31;5100656;28;20215;-73
2022/10/13 08:32:22;;;;;;;21.38;19.27;;;;;;;13.34;71.07;95609.88;5100562;28;20366;-71
2022/10/13 08:34:50;;;;;;;21.10;18.92;;;;;;;13.31;70.95;95616.13;5118146;28;20184;-71
2022/10/13 08:37:20;;;;;;;20.80;18.70;;;;;;;13.27;70.84;95606.94;5118277;28;20220;-72
2022/10/13 08:39:47;;;;;;;21.55;19.08;;;;;;;13.27;70.91;95604.16;5118441;28;20204;-70
2022/10/13 08:42:17;;;;;;;20.92;18.73;;;;;;;13.30;70.87;95612.56;5118248;28;20187;-74
2022/10/13 08:44:46;;;;;;;21.92;19.63;;;;;;;13.31;70.49;95603.09;5118508;28;20192;-72
2022/10/13 08:47:20;;;;;;;20.65;18.63;;;;;;;13.37;71.35;95601.66;5118655;28;20183;-73
2022/10/13 08:49:50;;;;;;;21.90;19.52;;;;;;;13.51;71.14;95594.84;5118401;28;20200;-73
2022/10/13 08:52:19;;;;;;;22.23;19.23;;;;;;;13.71;71.25;95588.22;5119092;27;20191;-72
2022/10/13 08:54:46;;;;;;;22.60;20.15;;;;;;;13.90;70.37;95581.91;5120782;27;20500;-73
2022/10/13 08:57:13;;;;;;;21.30;19.00;;;;;;;14.04;69.95;95581.41;5138820;27;20203;-73
2022/10/13 08:59:40;;;;;;;22.73;20.33;;;;;;;14.13;69.24;95588.38;5138684;27;20191;-72
2022/10/13 09:02:12;;;;;;;25.25;21.27;;;;;;;14.18;69.28;95584.50;5120626;27;20195;-72
2022/10/13 09:04:41;;;;;;;22.92;19.90;;;;;;;14.28;68.99;95583.94;5120843;27;20191;-71
2022/10/13 09:07:14;;;;;;;20.27;18.10;;;;;;;14.37;67.71;95567.84;5138373;27;20206;-69
2022/10/13 09:09:41;;;;;;;20.15;18.05;;;;;;;14.45;67.32;95575.19;5137916;27;20183;-68
2022/10/13 09:12:10;;;;;;;21.58;19.42;;;;;;;14.56;67.58;95574.59;5120023;27;20195;-68
2022/10/13 09:14:39;;;;;;;21.42;19.13;;;;;;;14.69;66.99;95573.28;5137779;27;20194;-69
2022/10/13 09:17:16;;;;;;;21.85;19.50;;;;;;;14.66;65.75;95565.69;5120404;27;20215;-68
2022/10/13 09:19:42;;;;;;;21.80;19.58;;;;;;;14.58;65.99;95563.94;5138058;27;20183;-69
2022/10/13 09:22:23;;;;;;;22.20;19.90;;;;;;;14.53;66.30;95562.28;5137902;27;20183;-69
2022/10/13 09:25:06;;;;;;;20.77;18.58;;;;;;;14.49;66.60;95560.53;5138176;27;20217;-68
2022/10/13 09:27:41;;;;;;;21.45;19.15;;;;;;;14.47;66.69;95544.28;5137957;27;20179;-68
2022/10/13 09:30:25;;;;;;;19.75;16.95;;;;;;;14.47;66.60;95547.06;5119699;27;20213;-68
2022/10/13 09:32:59;;;;;;;21.33;17.98;;;;;;;14.49;66.21;95546.66;5137794;27;20187;-69
2022/10/13 09:35:26;;;;;;;21.13;17.85;;;;;;;14.58;66.53;95552.84;5137690;27;20191;-69
2022/10/13 09:38:04;;;;;;;21.73;17.90;;;;;;;14.73;66.41;95548.38;5119658;27;20211;-69
2022/10/13 09:40:31;;;;;;;22.63;18.50;;;;;;;14.84;65.66;95546.59;5119614;27;20195;-69
2022/10/13 09:42:59;;;;;;;20.55;18.20;;;;;;;15.01;64.88;95545.31;5119991;27;20260;-71
2022/10/13 09:45:29;;;;;;;24.77;19.73;;;;;;;15.13;64.99;95543.13;5137897;27;20191;-71
2022/10/13 09:47:59;;;;;;;21.33;18.00;;;;;;;15.17;65.21;95552.34;5103009;27;20183;-71
2022/10/13 09:50:28;;;;;;;21.15;18.77;;;;;;;15.20;64.14;95545.25;5137170;27;20187;-69
2022/10/13 09:53:16;;;;;;;21.83;18.00;;;;;;;15.29;64.75;95533.88;5137168;27;20238;-71
2022/10/13 09:55:45;;;;;;;20.60;18.10;;;;;;;15.34;64.89;95528.00;5137583;27;20191;-72
2022/10/13 09:58:17;;;;;;;19.92;17.05;;;;;;;15.51;65.11;95529.47;5119116;27;20210;-69
2022/10/13 10:00:45;;;;;;;22.90;17.02;;;;;;;15.69;64.05;95524.22;5119137;27;20209;-69
2022/10/13 10:03:16;;;;;;;18.48;16.30;;;;;;;15.80;63.34;95517.63;5118743;27;20211;-70
2022/10/13 10:05:48;;;;;;;18.63;16.00;;;;;;;15.96;62.98;95519.41;5137134;27;20187;-72
2022/10/13 10:08:21;;;;;;;23.02;17.02;;;;;;;16.16;63.03;95514.50;5136929;27;20525;-71
2022/10/13 10:10:48;;;;;;;22.02;17.75;;;;;;;16.30;61.97;95509.13;5119156;27;20194;-71
2022/10/13 10:13:15;;;;;;;18.85;15.75;;;;;;;16.42;61.00;95496.94;5119047;27;20234;-71
2022/10/13 10:15:52;;;;;;;20.25;16.67;;;;;;;16.53;61.15;95507.00;5136876;27;20191;-71
2022/10/13 10:18:22;;;;;;;21.15;16.42;;;;;;;16.68;60.70;95505.19;5137072;27;20211;-71
2022/10/13 10:21:00;;;;;;;21.15;16.92;;;;;;;16.80;58.21;95504.94;5136632;27;20591;-70
2022/10/13 10:23:37;;;;;;;19.20;16.73;;;;;;;16.87;59.22;95492.28;5119020;27;20203;-69
2022/10/13 10:26:06;;;;;;;20.50;16.02;;;;;;;16.97;58.96;95491.56;5136538;27;20219;-69
2022/10/13 10:28:54;;;;;;;19.42;15.25;;;;;;;17.09;59.07;95492.06;5118421;27;20206;-70
2022/10/13 10:31:26;;;;;;;19.77;16.73;;;;;;;17.20;58.47;95483.81;5105130;27;20199;-69
2022/10/13 10:34:10;;;;;;;19.05;14.13;;;;;;;17.28;59.19;95488.28;5118837;27;20307;-70
2022/10/13 10:36:42;;;;;;;18.10;15.20;;;;;;;17.32;58.49;95477.94;5136632;27;20190;-69
2022/10/13 10:39:20;;;;;;;19.45;15.77;;;;;;;17.20;58.15;95472.66;5136689;27;20179;-69
2022/10/13 10:41:53;;;;;;;18.73;16.40;;;;;;;17.12;58.57;95473.78;5118938;27;20202;-69
2022/10/13 10:44:21;;;;;;;18.73;16.40;;;;;;;17.10;57.84;95462.22;5117848;27;20199;-70
2022/10/13 10:46:50;;;;;;;19.13;16.35;;;;;;;17.06;57.74;95466.97;5118783;28;20256;-69
2022/10/13 10:49:23;;;;;;;19.45;16.10;;;;;;;16.87;57.58;95456.06;5118595;28;20191;-70
2022/10/13 10:51:50;;;;;;;17.70;15.45;;;;;;;16.84;58.28;95450.06;5136763;27;20206;-69
2022/10/13 10:54:26;;;;;;;19.52;15.68;;;;;;;16.91;59.36;95443.75;5116816;28;20227;-70
2022/10/13 10:56:56;;;;;;;19.92;17.15;;;;;;;16.86;58.22;95440.53;5117933;28;20599;-70
2022/10/13 10:59:29;;;;;;;18.58;16.02;;;;;;;16.79;58.61;95441.25;5136485;28;20199;-69
2022/10/13 11:02:03;;;;;;;21.10;15.30;;;;;;;16.82;59.27;95432.16;5118742;28;20638;-70
2022/10/13 11:04:41;;;;;;;20.05;15.77;;;;;;;16.87;59.73;95433.78;5136425;28;20194;-69
2022/10/13 11:07:13;;;;;;;18.70;15.95;;;;;;;16.87;58.53;95430.97;5136274;28;20237;-69
2022/10/13 11:10:09;;;;;;;17.35;14.57;;;;;;;16.93;58.91;95423.88;5136022;28;20183;-69
2022/10/13 11:12:48;;;;;;;16.25;14.48;;;;;;;16.93;58.08;95421.09;5117217;28;20207;-70
2022/10/13 11:15:22;;;;;;;17.08;14.70;;;;;;;16.95;59.29;95419.50;5118307;28;20354;-70
2022/10/13 11:17:49;;;;;;;15.40;13.73;;;;;;;17.01;59.04;95420.75;5118003;28;20213;-70
2022/10/13 11:20:49;;;;;;;16.80;13.23;;;;;;;17.08;58.78;95415.25;5117949;28;20183;-70
2022/10/13 11:23:43;;;;;;;15.32;12.93;;;;;;;17.09;57.34;95408.47;5136119;28;20283;-70
2022/10/13 11:26:43;;;;;;;18.70;13.63;;;;;;;17.17;58.72;95405.72;5099579;28;20210;-71
2022/10/13 11:29:18;;;;;;;15.13;13.43;;;;;;;17.23;58.47;95395.84;5118027;28;20195;-72
2022/10/13 11:31:51;;;;;;;16.30;13.88;;;;;;;17.29;57.67;95394.28;5136297;28;20222;-71